KOJC/OJC METAR and TAF weather

Enter ICAO airport designator
Station Type Date Time Source
KOJC METAR 2022/12/01 00:23 UTC NOAA

KOJC 010023Z 25004KT 10SM CLR M01/M12 A3040 RMK AO2 T10111117


Station Type Date Time Source
KOJC Decoded METAR 2022/12/01 00:23 UTC NOAA

OLATHE JOHNSON CO EXECUTIVE, KS, United States (KOJC) 38-50N 94-44W 326M
Nov 30, 2022 - 07:23 PM EST / 2022.12.01 0023 UTC
Wind: from the WSW (250 degrees) at 5 MPH (4 KT):0
Visibility: 10 mile(s):0
Sky conditions: clear
Temperature: 30.0 F (-1.1 C)
Windchill: 24 F (-4 C):1
Dew Point: 10.9 F (-11.7 C)
Relative Humidity: 44%
Pressure (altimeter): 30.4 in. Hg (1029 hPa)
ob: KOJC 010023Z 25004KT 10SM CLR M01/M12 A3040 RMK AO2 T10111117
cycle: 0

Station Type Date Time Source
KOJC TAF UTC NOAA

Error!

Example: see airport list